sensor_id;sensor_type;location;lat;lon;timestamp;pressure;altitude;pressure_sealevel;temperature;humidity
78990;BME280;68390;52.130;21.218;2023-08-07T00:00:12;98906.50;;;15.07;94.19
78990;BME280;68390;52.130;21.218;2023-08-07T00:02:38;98912.75;;;15.03;94.75
78990;BME280;68390;52.130;21.218;2023-08-07T00:05:05;98908.13;;;14.97;95.13
78990;BME280;68390;52.130;21.218;2023-08-07T00:07:30;98909.84;;;14.98;95.32
78990;BME280;68390;52.130;21.218;2023-08-07T00:09:55;98915.84;;;14.95;95.91
78990;BME280;68390;52.130;21.218;2023-08-07T00:12:21;98921.22;;;14.90;95.71
78990;BME280;68390;52.130;21.218;2023-08-07T00:14:47;98922.06;;;14.90;95.66
78990;BME280;68390;52.130;21.218;2023-08-07T00:17:13;98918.56;;;14.83;96.23
78990;BME280;68390;52.130;21.218;2023-08-07T00:19:38;98918.03;;;14.75;96.77
78990;BME280;68390;52.130;21.218;2023-08-07T00:22:04;98918.63;;;14.77;97.16
78990;BME280;68390;52.130;21.218;2023-08-07T00:24:29;98920.31;;;14.78;96.99
78990;BME280;68390;52.130;21.218;2023-08-07T00:26:54;98918.63;;;14.77;96.92
78990;BME280;68390;52.130;21.218;2023-08-07T00:29:20;98906.75;;;14.76;96.89
78990;BME280;68390;52.130;21.218;2023-08-07T00:31:45;98905.53;;;14.72;97.51
78990;BME280;68390;52.130;21.218;2023-08-07T00:34:10;98901.78;;;14.66;97.31
78990;BME280;68390;52.130;21.218;2023-08-07T00:36:36;98905.84;;;14.64;98.02
78990;BME280;68390;52.130;21.218;2023-08-07T00:39:05;98898.28;;;14.59;97.79
78990;BME280;68390;52.130;21.218;2023-08-07T00:41:31;98900.19;;;14.59;97.33
78990;BME280;68390;52.130;21.218;2023-08-07T00:43:56;98908.69;;;14.57;97.59
78990;BME280;68390;52.130;21.218;2023-08-07T00:46:22;98912.31;;;14.58;97.09
78990;BME280;68390;52.130;21.218;2023-08-07T00:48:48;98895.97;;;14.56;97.41
78990;BME280;68390;52.130;21.218;2023-08-07T00:51:32;98897.66;;;14.57;98.15
78990;BME280;68390;52.130;21.218;2023-08-07T00:53:58;98899.97;;;14.60;97.21
78990;BME280;68390;52.130;21.218;2023-08-07T00:56:25;98898.03;;;14.61;97.39
78990;BME280;68390;52.130;21.218;2023-08-07T00:58:51;98886.59;;;14.57;97.73
78990;BME280;68390;52.130;21.218;2023-08-07T01:01:17;98882.75;;;14.58;96.80
78990;BME280;68390;52.130;21.218;2023-08-07T01:03:42;98875.56;;;14.57;96.69
78990;BME280;68390;52.130;21.218;2023-08-07T01:06:08;98883.84;;;14.57;97.83
78990;BME280;68390;52.130;21.218;2023-08-07T01:08:33;98877.69;;;14.55;96.91
78990;BME280;68390;52.130;21.218;2023-08-07T01:11:06;98898.72;;;14.56;96.45
78990;BME280;68390;52.130;21.218;2023-08-07T01:13:46;98886.47;;;14.52;96.70
78990;BME280;68390;52.130;21.218;2023-08-07T01:16:45;98877.56;;;14.50;96.36
78990;BME280;68390;52.130;21.218;2023-08-07T01:19:23;98885.00;;;14.50;96.74
78990;BME280;68390;52.130;21.218;2023-08-07T01:21:49;98885.47;;;14.47;96.16
78990;BME280;68390;52.130;21.218;2023-08-07T01:24:15;98879.56;;;14.43;96.23
78990;BME280;68390;52.130;21.218;2023-08-07T01:26:42;98875.97;;;14.43;96.64
78990;BME280;68390;52.130;21.218;2023-08-07T01:29:20;98866.44;;;14.39;97.18
78990;BME280;68390;52.130;21.218;2023-08-07T01:31:53;98886.22;;;14.36;97.24
78990;BME280;68390;52.130;21.218;2023-08-07T01:34:20;98889.81;;;14.36;97.38
78990;BME280;68390;52.130;21.218;2023-08-07T01:36:48;98898.09;;;14.36;97.15
78990;BME280;68390;52.130;21.218;2023-08-07T01:39:14;98905.53;;;14.36;98.07
78990;BME280;68390;52.130;21.218;2023-08-07T01:41:41;98909.25;;;14.29;98.05
78990;BME280;68390;52.130;21.218;2023-08-07T01:44:06;98916.47;;;14.30;98.42
78990;BME280;68390;52.130;21.218;2023-08-07T01:46:32;98907.78;;;14.27;98.63
78990;BME280;68390;52.130;21.218;2023-08-07T01:48:57;98897.19;;;14.24;98.66
78990;BME280;68390;52.130;21.218;2023-08-07T01:51:22;98885.56;;;14.22;99.51
78990;BME280;68390;52.130;21.218;2023-08-07T01:53:48;98883.47;;;14.17;99.03
78990;BME280;68390;52.130;21.218;2023-08-07T01:56:13;98870.97;;;14.15;99.25
78990;BME280;68390;52.130;21.218;2023-08-07T01:58:39;98867.13;;;14.16;99.89
78990;BME280;68390;52.130;21.218;2023-08-07T02:01:04;98867.13;;;14.16;99.66
78990;BME280;68390;52.130;21.218;2023-08-07T02:03:29;98870.84;;;14.10;99.42
78990;BME280;68390;52.130;21.218;2023-08-07T02:05:55;98885.09;;;14.07;99.48
78990;BME280;68390;52.130;21.218;2023-08-07T02:08:20;98888.91;;;14.06;100.00
78990;BME280;68390;52.130;21.218;2023-08-07T02:10:45;98896.56;;;14.04;99.70
78990;BME280;68390;52.130;21.218;2023-08-07T02:13:11;98907.16;;;14.07;100.00
78990;BME280;68390;52.130;21.218;2023-08-07T02:15:36;98917.75;;;14.10;100.00
78990;BME280;68390;52.130;21.218;2023-08-07T02:18:02;98925.03;;;14.04;100.00
78990;BME280;68390;52.130;21.218;2023-08-07T02:20:27;98936.69;;;14.06;100.00
78990;BME280;68390;52.130;21.218;2023-08-07T02:22:53;98929.25;;;14.07;100.00
78990;BME280;68390;52.130;21.218;2023-08-07T02:25:18;98916.50;;;14.06;100.00
78990;BME280;68390;52.130;21.218;2023-08-07T02:27:43;98918.22;;;14.07;100.00
78990;BME280;68390;52.130;21.218;2023-08-07T02:30:09;98923.09;;;14.05;100.00
78990;BME280;68390;52.130;21.218;2023-08-07T02:32:54;98933.31;;;14.04;100.00
78990;BME280;68390;52.130;21.218;2023-08-07T02:35:20;98930.75;;;14.03;100.00
78990;BME280;68390;52.130;21.218;2023-08-07T02:37:45;98933.06;;;14.06;100.00
78990;BME280;68390;52.130;21.218;2023-08-07T02:40:11;98927.56;;;14.06;100.00
78990;BME280;68390;52.130;21.218;2023-08-07T02:42:40;98931.16;;;14.06;100.00
78990;BME280;68390;52.130;21.218;2023-08-07T02:45:05;98932.63;;;14.09;100.00
78990;BME280;68390;52.130;21.218;2023-08-07T02:47:31;98919.06;;;14.07;100.00
78990;BME280;68390;52.130;21.218;2023-08-07T02:49:56;98926.66;;;14.12;100.00
78990;BME280;68390;52.130;21.218;2023-08-07T02:52:22;98921.94;;;14.12;100.00
78990;BME280;68390;52.130;21.218;2023-08-07T02:54:47;98914.38;;;14.08;100.00
78990;BME280;68390;52.130;21.218;2023-08-07T02:57:12;98914.81;;;14.05;100.00
78990;BME280;68390;52.130;21.218;2023-08-07T02:59:38;98918.22;;;14.07;99.05
78990;BME280;68390;52.130;21.218;2023-08-07T03:02:03;98914.38;;;14.08;99.56
78990;BME280;68390;52.130;21.218;2023-08-07T03:04:29;98912.69;;;14.07;99.96
78990;BME280;68390;52.130;21.218;2023-08-07T03:06:54;98917.59;;;14.05;100.00
78990;BME280;68390;52.130;21.218;2023-08-07T03:09:19;98928.00;;;14.03;100.00
78990;BME280;68390;52.130;21.218;2023-08-07T03:11:45;98940.97;;;14.02;100.00
78990;BME280;68390;52.130;21.218;2023-08-07T03:14:10;98935.69;;;14.01;100.00
78990;BME280;68390;52.130;21.218;2023-08-07T03:16:35;98934.84;;;14.00;100.00
78990;BME280;68390;52.130;21.218;2023-08-07T03:19:01;98945.88;;;14.00;99.77
78990;BME280;68390;52.130;21.218;2023-08-07T03:21:26;98948.47;;;13.95;100.00
78990;BME280;68390;52.130;21.218;2023-08-07T03:23:52;98945.72;;;13.95;100.00
78990;BME280;68390;52.130;21.218;2023-08-07T03:26:17;98958.66;;;13.94;100.00
78990;BME280;68390;52.130;21.218;2023-08-07T03:28:42;98956.53;;;13.96;100.00
78990;BME280;68390;52.130;21.218;2023-08-07T03:31:10;98961.22;;;13.96;100.00
78990;BME280;68390;52.130;21.218;2023-08-07T03:33:35;98964.19;;;13.94;100.00
78990;BME280;68390;52.130;21.218;2023-08-07T03:36:01;98973.75;;;13.92;100.00
78990;BME280;68390;52.130;21.218;2023-08-07T03:38:27;98973.16;;;13.90;100.00
78990;BME280;68390;52.130;21.218;2023-08-07T03:40:52;98978.28;;;13.86;100.00
78990;BME280;68390;52.130;21.218;2023-08-07T03:43:17;98972.13;;;13.84;100.00
78990;BME280;68390;52.130;21.218;2023-08-07T03:45:43;98987.00;;;13.83;100.00
78990;BME280;68390;52.130;21.218;2023-08-07T03:48:08;98977.94;;;13.76;100.00
78990;BME280;68390;52.130;21.218;2023-08-07T03:50:34;98983.28;;;13.71;100.00
78990;BME280;68390;52.130;21.218;2023-08-07T03:53:02;98971.66;;;13.69;100.00
78990;BME280;68390;52.130;21.218;2023-08-07T03:55:27;98968.28;;;13.67;100.00
78990;BME280;68390;52.130;21.218;2023-08-07T03:57:52;98954.47;;;13.67;100.00
78990;BME280;68390;52.130;21.218;2023-08-07T04:00:18;98955.94;;;13.70;100.00
78990;BME280;68390;52.130;21.218;2023-08-07T04:02:44;98958.47;;;13.71;100.00
78990;BME280;68390;52.130;21.218;2023-08-07T04:05:10;98961.22;;;13.71;100.00
78990;BME280;68390;52.130;21.218;2023-08-07T04:07:35;98958.00;;;13.74;100.00
78990;BME280;68390;52.130;21.218;2023-08-07T04:10:01;98976.25;;;13.75;100.00
78990;BME280;68390;52.130;21.218;2023-08-07T04:12:26;98968.59;;;13.77;100.00
78990;BME280;68390;52.130;21.218;2023-08-07T04:14:52;98974.75;;;13.79;100.00
78990;BME280;68390;52.130;21.218;2023-08-07T04:17:17;98976.44;;;13.80;99.95
78990;BME280;68390;52.130;21.218;2023-08-07T04:19:42;98972.84;;;13.80;99.93
78990;BME280;68390;52.130;21.218;2023-08-07T04:22:08;98979.34;;;13.85;100.00
78990;BME280;68390;52.130;21.218;2023-08-07T04:24:33;98979.97;;;13.87;100.00
78990;BME280;68390;52.130;21.218;2023-08-07T04:26:58;98983.94;;;13.91;100.00
78990;BME280;68390;52.130;21.218;2023-08-07T04:29:24;98986.72;;;13.91;100.00
78990;BME280;68390;52.130;21.218;2023-08-07T04:31:50;99010.44;;;13.99;100.00
78990;BME280;68390;52.130;21.218;2023-08-07T04:34:15;99012.97;;;14.01;100.00
78990;BME280;68390;52.130;21.218;2023-08-07T04:36:41;99010.03;;;13.95;99.41
78990;BME280;68390;52.130;21.218;2023-08-07T04:39:06;99009.59;;;13.99;99.05
78990;BME280;68390;52.130;21.218;2023-08-07T04:41:32;99004.44;;;14.02;99.55
78990;BME280;68390;52.130;21.218;2023-08-07T04:43:57;99012.28;;;14.05;99.71
78990;BME280;68390;52.130;21.218;2023-08-07T04:46:23;99010.38;;;14.06;99.10
78990;BME280;68390;52.130;21.218;2023-08-07T04:48:48;99011.38;;;14.11;98.54
78990;BME280;68390;52.130;21.218;2023-08-07T04:51:14;99008.38;;;14.13;97.99
78990;BME280;68390;52.130;21.218;2023-08-07T04:53:40;99010.69;;;14.16;98.38
78990;BME280;68390;52.130;21.218;2023-08-07T04:56:06;99009.63;;;14.17;96.09
78990;BME280;68390;52.130;21.218;2023-08-07T04:58:31;99013.00;;;14.19;96.28
78990;BME280;68390;52.130;21.218;2023-08-07T05:00:57;99011.31;;;14.18;95.75
78990;BME280;68390;52.130;21.218;2023-08-07T05:03:24;99010.06;;;14.14;96.74
78990;BME280;68390;52.130;21.218;2023-08-07T05:05:49;99018.31;;;14.20;96.57
78990;BME280;68390;52.130;21.218;2023-08-07T05:08:15;99017.69;;;14.18;97.41
78990;BME280;68390;52.130;21.218;2023-08-07T05:10:41;99022.13;;;14.19;96.42
78990;BME280;68390;52.130;21.218;2023-08-07T05:13:06;99027.19;;;14.22;95.29
78990;BME280;68390;52.130;21.218;2023-08-07T05:15:31;99021.44;;;14.24;96.28
78990;BME280;68390;52.130;21.218;2023-08-07T05:17:57;99013.16;;;14.24;95.84
78990;BME280;68390;52.130;21.218;2023-08-07T05:20:23;99017.38;;;14.26;96.29
78990;BME280;68390;52.130;21.218;2023-08-07T05:22:48;99018.22;;;14.27;96.96
78990;BME280;68390;52.130;21.218;2023-08-07T05:25:14;99022.69;;;14.28;96.51
78990;BME280;68390;52.130;21.218;2023-08-07T05:27:44;99023.53;;;14.28;96.10
78990;BME280;68390;52.130;21.218;2023-08-07T05:30:10;99026.06;;;14.30;96.42
78990;BME280;68390;52.130;21.218;2023-08-07T05:32:36;99015.16;;;14.35;95.79
78990;BME280;68390;52.130;21.218;2023-08-07T05:35:06;99019.41;;;14.38;96.06
78990;BME280;68390;52.130;21.218;2023-08-07T05:37:32;99018.97;;;14.41;96.33
78990;BME280;68390;52.130;21.218;2023-08-07T05:39:58;99011.09;;;14.38;94.76
78990;BME280;68390;52.130;21.218;2023-08-07T05:42:23;99016.63;;;14.38;93.97
78990;BME280;68390;52.130;21.218;2023-08-07T05:44:48;99019.59;;;14.43;94.44
78990;BME280;68390;52.130;21.218;2023-08-07T05:47:14;99016.56;;;14.44;94.22
78990;BME280;68390;52.130;21.218;2023-08-07T05:49:39;99021.44;;;14.49;92.47
78990;BME280;68390;52.130;21.218;2023-08-07T05:52:05;99014.38;;;14.53;92.80
78990;BME280;68390;52.130;21.218;2023-08-07T05:54:31;99013.44;;;14.59;93.66
78990;BME280;68390;52.130;21.218;2023-08-07T05:56:56;99015.28;;;14.65;92.62
78990;BME280;68390;52.130;21.218;2023-08-07T05:59:22;99022.03;;;14.69;91.68
78990;BME280;68390;52.130;21.218;2023-08-07T06:01:47;99022.03;;;14.69;92.25
78990;BME280;68390;52.130;21.218;2023-08-07T06:04:12;99025.22;;;14.73;92.80
78990;BME280;68390;52.130;21.218;2023-08-07T06:06:38;99019.81;;;14.78;92.43
78990;BME280;68390;52.130;21.218;2023-08-07T06:09:05;99010.97;;;14.87;92.93
78990;BME280;68390;52.130;21.218;2023-08-07T06:11:31;99002.97;;;14.97;91.84
78990;BME280;68390;52.130;21.218;2023-08-07T06:13:58;99004.22;;;15.01;89.62
78990;BME280;68390;52.130;21.218;2023-08-07T06:16:23;99010.13;;;15.05;89.03
78990;BME280;68390;52.130;21.218;2023-08-07T06:18:48;99010.13;;;15.05;89.75
78990;BME280;68390;52.130;21.218;2023-08-07T06:21:14;99015.94;;;14.97;87.71
78990;BME280;68390;52.130;21.218;2023-08-07T06:23:39;99010.91;;;14.94;86.99
78990;BME280;68390;52.130;21.218;2023-08-07T06:26:06;99007.53;;;14.92;88.09
78990;BME280;68390;52.130;21.218;2023-08-07T06:28:34;99002.75;;;14.99;88.34
78990;BME280;68390;52.130;21.218;2023-08-07T06:31:07;99013.97;;;15.04;88.61
78990;BME280;68390;52.130;21.218;2023-08-07T06:33:33;99006.88;;;15.08;88.04
78990;BME280;68390;52.130;21.218;2023-08-07T06:36:00;99017.59;;;15.16;87.45
78990;BME280;68390;52.130;21.218;2023-08-07T06:38:26;99026.44;;;15.25;86.50
78990;BME280;68390;52.130;21.218;2023-08-07T06:40:51;99027.28;;;15.25;84.83
78990;BME280;68390;52.130;21.218;2023-08-07T06:43:16;99018.38;;;15.23;85.30
78990;BME280;68390;52.130;21.218;2023-08-07T06:45:42;99035.66;;;15.19;84.99
78990;BME280;68390;52.130;21.218;2023-08-07T06:48:08;99027.47;;;15.12;83.37
78990;BME280;68390;52.130;21.218;2023-08-07T06:50:33;99037.28;;;15.08;83.12
78990;BME280;68390;52.130;21.218;2023-08-07T06:52:59;99036.44;;;15.07;83.75
78990;BME280;68390;52.130;21.218;2023-08-07T06:55:25;99034.38;;;15.03;84.19
78990;BME280;68390;52.130;21.218;2023-08-07T06:57:51;99037.84;;;14.98;83.95
78990;BME280;68390;52.130;21.218;2023-08-07T07:00:16;99037.22;;;14.96;83.70
78990;BME280;68390;52.130;21.218;2023-08-07T07:02:42;99052.38;;;14.94;82.72
78990;BME280;68390;52.130;21.218;2023-08-07T07:05:08;99049.44;;;14.89;84.11
78990;BME280;68390;52.130;21.218;2023-08-07T07:07:33;99043.91;;;14.89;84.08
78990;BME280;68390;52.130;21.218;2023-08-07T07:09:59;99060.66;;;14.94;83.29
78990;BME280;68390;52.130;21.218;2023-08-07T07:12:27;99050.59;;;14.99;83.67
78990;BME280;68390;52.130;21.218;2023-08-07T07:14:52;99055.00;;;15.19;83.66
78990;BME280;68390;52.130;21.218;2023-08-07T07:17:18;99053.75;;;15.33;81.93
78990;BME280;68390;52.130;21.218;2023-08-07T07:19:43;99066.88;;;15.56;81.32
78990;BME280;68390;52.130;21.218;2023-08-07T07:22:09;99067.28;;;15.71;81.04
78990;BME280;68390;52.130;21.218;2023-08-07T07:24:34;99075.16;;;15.86;78.27
78990;BME280;68390;52.130;21.218;2023-08-07T07:27:00;99073.50;;;15.96;79.75
78990;BME280;68390;52.130;21.218;2023-08-07T07:29:25;99078.28;;;15.89;75.99
78990;BME280;68390;52.130;21.218;2023-08-07T07:31:52;99085.63;;;15.84;78.38
78990;BME280;68390;52.130;21.218;2023-08-07T07:34:20;99077.50;;;15.70;76.36
78990;BME280;68390;52.130;21.218;2023-08-07T07:36:47;99081.22;;;15.64;75.87
78990;BME280;68390;52.130;21.218;2023-08-07T07:39:12;99085.34;;;15.73;75.96
78990;BME280;68390;52.130;21.218;2023-08-07T07:41:37;99086.06;;;15.81;77.52
78990;BME280;68390;52.130;21.218;2023-08-07T07:44:05;99082.97;;;15.89;78.46
78990;BME280;68390;52.130;21.218;2023-08-07T07:46:31;99081.38;;;15.81;76.62
78990;BME280;68390;52.130;21.218;2023-08-07T07:48:58;99088.56;;;15.70;77.46
78990;BME280;68390;52.130;21.218;2023-08-07T07:51:24;99079.91;;;15.67;77.17
78990;BME280;68390;52.130;21.218;2023-08-07T07:53:49;99084.84;;;15.65;78.65
78990;BME280;68390;52.130;21.218;2023-08-07T07:56:14;99084.69;;;15.60;79.20
78990;BME280;68390;52.130;21.218;2023-08-07T07:58:40;99086.47;;;15.54;77.70
78990;BME280;68390;52.130;21.218;2023-08-07T08:01:06;99083.91;;;15.53;78.54
78990;BME280;68390;52.130;21.218;2023-08-07T08:03:32;99089.06;;;15.49;77.90
78990;BME280;68390;52.130;21.218;2023-08-07T08:05:57;99093.91;;;15.54;78.57
78990;BME280;68390;52.130;21.218;2023-08-07T08:08:23;99097.97;;;15.51;77.19
78990;BME280;68390;52.130;21.218;2023-08-07T08:10:48;99096.69;;;15.54;76.98
78990;BME280;68390;52.130;21.218;2023-08-07T08:13:14;99089.44;;;15.53;76.95
78990;BME280;68390;52.130;21.218;2023-08-07T08:15:40;99105.44;;;15.51;76.50
78990;BME280;68390;52.130;21.218;2023-08-07T08:18:06;99097.59;;;15.48;77.01
78990;BME280;68390;52.130;21.218;2023-08-07T08:20:31;99102.38;;;15.40;75.98
78990;BME280;68390;52.130;21.218;2023-08-07T08:22:58;99099.00;;;15.38;78.05
78990;BME280;68390;52.130;21.218;2023-08-07T08:25:23;99111.75;;;15.39;78.66
78990;BME280;68390;52.130;21.218;2023-08-07T08:27:49;99117.22;;;15.46;77.36
78990;BME280;68390;52.130;21.218;2023-08-07T08:30:16;99112.19;;;15.73;75.56
78990;BME280;68390;52.130;21.218;2023-08-07T08:32:43;99101.31;;;16.01;75.58
78990;BME280;68390;52.130;21.218;2023-08-07T08:35:09;99110.50;;;16.25;75.71
78990;BME280;68390;52.130;21.218;2023-08-07T08:37:35;99109.78;;;16.41;74.17
78990;BME280;68390;52.130;21.218;2023-08-07T08:40:00;99110.53;;;16.48;71.86
78990;BME280;68390;52.130;21.218;2023-08-07T08:42:26;99099.69;;;16.47;72.16
78990;BME280;68390;52.130;21.218;2023-08-07T08:44:53;99105.72;;;16.44;72.80
78990;BME280;68390;52.130;21.218;2023-08-07T08:47:20;99102.44;;;16.35;72.78
78990;BME280;68390;52.130;21.218;2023-08-07T08:49:47;99113.03;;;16.27;71.30
78990;BME280;68390;52.130;21.218;2023-08-07T08:52:13;99107.13;;;16.23;72.02
78990;BME280;68390;52.130;21.218;2023-08-07T08:54:43;99118.31;;;16.17;71.95
78990;BME280;68390;52.130;21.218;2023-08-07T08:57:11;99129.03;;;16.13;71.69
78990;BME280;68390;52.130;21.218;2023-08-07T08:59:36;99140.94;;;16.13;72.16
78990;BME280;68390;52.130;21.218;2023-08-07T09:02:03;99128.09;;;16.42;71.99
78990;BME280;68390;52.130;21.218;2023-08-07T09:04:28;99137.16;;;16.61;71.32
78990;BME280;68390;52.130;21.218;2023-08-07T09:06:55;99138.88;;;16.85;70.75
78990;BME280;68390;52.130;21.218;2023-08-07T09:09:22;99148.16;;;17.03;68.85
78990;BME280;68390;52.130;21.218;2023-08-07T09:11:49;99142.31;;;17.28;68.75
78990;BME280;68390;52.130;21.218;2023-08-07T09:14:17;99140.22;;;17.46;68.91
78990;BME280;68390;52.130;21.218;2023-08-07T09:16:47;99148.56;;;17.46;66.85
78990;BME280;68390;52.130;21.218;2023-08-07T09:19:13;99143.81;;;17.58;67.83
78990;BME280;68390;52.130;21.218;2023-08-07T09:21:39;99148.75;;;17.56;66.38
78990;BME280;68390;52.130;21.218;2023-08-07T09:24:07;99165.63;;;17.78;66.34
78990;BME280;68390;52.130;21.218;2023-08-07T09:26:33;99162.59;;;17.80;65.14
78990;BME280;68390;52.130;21.218;2023-08-07T09:29:02;99176.50;;;17.80;67.54
78990;BME280;68390;52.130;21.218;2023-08-07T09:31:28;99172.59;;;18.09;66.92
78990;BME280;68390;52.130;21.218;2023-08-07T09:34:01;99173.69;;;18.37;62.62
78990;BME280;68390;52.130;21.218;2023-08-07T09:36:26;99165.81;;;18.62;64.69
78990;BME280;68390;52.130;21.218;2023-08-07T09:38:52;99163.78;;;18.74;61.25
78990;BME280;68390;52.130;21.218;2023-08-07T09:41:18;99179.09;;;18.93;63.21
78990;BME280;68390;52.130;21.218;2023-08-07T09:43:44;99181.03;;;19.10;60.85
78990;BME280;68390;52.130;21.218;2023-08-07T09:46:10;99176.88;;;19.29;58.34
78990;BME280;68390;52.130;21.218;2023-08-07T09:48:43;99178.41;;;19.58;59.25
78990;BME280;68390;52.130;21.218;2023-08-07T09:51:09;99183.38;;;19.56;57.56
78990;BME280;68390;52.130;21.218;2023-08-07T09:53:35;99185.53;;;19.49;57.37
78990;BME280;68390;52.130;21.218;2023-08-07T09:56:01;99193.72;;;19.22;57.36
78990;BME280;68390;52.130;21.218;2023-08-07T09:58:27;99193.09;;;18.98;55.85
78990;BME280;68390;52.130;21.218;2023-08-07T10:00:53;99201.97;;;18.95;57.57
78990;BME280;68390;52.130;21.218;2023-08-07T10:03:19;99200.44;;;19.04;57.05
78990;BME280;68390;52.130;21.218;2023-08-07T10:05:45;99205.75;;;19.06;59.16
78990;BME280;68390;52.130;21.218;2023-08-07T10:08:11;99215.00;;;19.12;56.12
78990;BME280;68390;52.130;21.218;2023-08-07T10:10:37;99208.44;;;19.01;56.02
78990;BME280;68390;52.130;21.218;2023-08-07T10:13:04;99203.72;;;18.85;56.53
78990;BME280;68390;52.130;21.218;2023-08-07T10:15:31;99207.28;;;18.97;56.27
78990;BME280;68390;52.130;21.218;2023-08-07T10:17:57;99221.41;;;19.29;57.67
78990;BME280;68390;52.130;21.218;2023-08-07T10:20:24;99207.19;;;19.47;56.28
78990;BME280;68390;52.130;21.218;2023-08-07T10:22:52;99205.34;;;19.74;57.48
78990;BME280;68390;52.130;21.218;2023-08-07T10:25:20;99210.38;;;19.99;54.35
78990;BME280;68390;52.130;21.218;2023-08-07T10:27:48;99203.00;;;19.88;54.29
78990;BME280;68390;52.130;21.218;2023-08-07T10:30:17;99210.97;;;20.01;55.99
78990;BME280;68390;52.130;21.218;2023-08-07T10:32:45;99197.94;;;19.85;53.72
78990;BME280;68390;52.130;21.218;2023-08-07T10:35:23;99199.88;;;19.63;53.71
78990;BME280;68390;52.130;21.218;2023-08-07T10:37:50;99203.41;;;19.36;54.94
78990;BME280;68390;52.130;21.218;2023-08-07T10:40:16;99210.53;;;19.11;55.85
78990;BME280;68390;52.130;21.218;2023-08-07T10:45:20;99204.06;;;18.88;56.51
78990;BME280;68390;52.130;21.218;2023-08-07T10:48:20;99190.41;;;18.87;57.03
78990;BME280;68390;52.130;21.218;2023-08-07T10:50:56;99202.72;;;19.08;57.37
78990;BME280;68390;52.130;21.218;2023-08-07T10:53:31;99214.44;;;19.31;59.51
78990;BME280;68390;52.130;21.218;2023-08-07T10:55:58;99205.19;;;19.64;60.98
78990;BME280;68390;52.130;21.218;2023-08-07T10:58:33;99200.81;;;19.90;58.15
78990;BME280;68390;52.130;21.218;2023-08-07T11:03:59;99201.53;;;19.81;55.20
78990;BME280;68390;52.130;21.218;2023-08-07T11:06:28;99211.63;;;19.65;55.39
78990;BME280;68390;52.130;21.218;2023-08-07T11:08:56;99222.69;;;19.43;54.37
78990;BME280;68390;52.130;21.218;2023-08-07T11:11:22;99225.88;;;19.30;55.67
78990;BME280;68390;52.130;21.218;2023-08-07T11:13:48;99218.94;;;19.32;54.01
78990;BME280;68390;52.130;21.218;2023-08-07T11:16:14;99227.28;;;19.49;55.88
78990;BME280;68390;52.130;21.218;2023-08-07T11:18:40;99222.00;;;19.69;53.60
78990;BME280;68390;52.130;21.218;2023-08-07T11:21:08;99220.56;;;19.67;51.74
78990;BME280;68390;52.130;21.218;2023-08-07T11:23:36;99216.69;;;19.68;52.26
78990;BME280;68390;52.130;21.218;2023-08-07T11:26:01;99234.81;;;19.70;51.43
78990;BME280;68390;52.130;21.218;2023-08-07T11:28:28;99225.38;;;19.93;53.51
78990;BME280;68390;52.130;21.218;2023-08-07T11:30:54;99218.91;;;20.14;53.79
78990;BME280;68390;52.130;21.218;2023-08-07T11:33:21;99213.44;;;20.46;53.26
78990;BME280;68390;52.130;21.218;2023-08-07T11:35:48;99220.53;;;20.86;52.15
78990;BME280;68390;52.130;21.218;2023-08-07T11:38:36;99225.72;;;21.09;50.34
78990;BME280;68390;52.130;21.218;2023-08-07T11:41:06;99210.34;;;21.07;49.45
78990;BME280;68390;52.130;21.218;2023-08-07T11:43:33;99200.75;;;20.93;51.12
78990;BME280;68390;52.130;21.218;2023-08-07T11:46:06;99218.69;;;21.02;50.22
78990;BME280;68390;52.130;21.218;2023-08-07T11:48:33;99215.22;;;20.89;48.82
78990;BME280;68390;52.130;21.218;2023-08-07T11:51:00;99223.25;;;20.81;50.08
78990;BME280;68390;52.130;21.218;2023-08-07T11:53:27;99218.22;;;20.51;49.49
78990;BME280;68390;52.130;21.218;2023-08-07T11:56:00;99228.81;;;20.27;49.10
78990;BME280;68390;52.130;21.218;2023-08-07T11:58:28;99223.69;;;20.14;50.12
78990;BME280;68390;52.130;21.218;2023-08-07T12:00:58;99227.59;;;20.18;50.79
78990;BME280;68390;52.130;21.218;2023-08-07T12:03:35;99228.00;;;20.05;51.00
78990;BME280;68390;52.130;21.218;2023-08-07T12:06:05;99217.94;;;20.26;49.74
78990;BME280;68390;52.130;21.218;2023-08-07T12:08:38;99218.16;;;20.46;50.62
78990;BME280;68390;52.130;21.218;2023-08-07T12:11:05;99224.88;;;20.45;50.50
78990;BME280;68390;52.130;21.218;2023-08-07T12:13:31;99235.69;;;20.68;50.34
78990;BME280;68390;52.130;21.218;2023-08-07T12:16:01;99231.69;;;20.86;50.19
78990;BME280;68390;52.130;21.218;2023-08-07T12:18:27;99237.88;;;20.93;50.15
78990;BME280;68390;52.130;21.218;2023-08-07T12:20:57;99229.16;;;20.84;48.33
78990;BME280;68390;52.130;21.218;2023-08-07T12:23:22;99230.34;;;20.62;50.09
78990;BME280;68390;52.130;21.218;2023-08-07T12:25:48;99258.22;;;20.35;48.71
78990;BME280;68390;52.130;21.218;2023-08-07T12:28:15;99255.09;;;20.09;49.04
78990;BME280;68390;52.130;21.218;2023-08-07T12:30:44;99270.22;;;19.92;50.34
78990;BME280;68390;52.130;21.218;2023-08-07T12:33:10;99278.69;;;19.80;51.68
78990;BME280;68390;52.130;21.218;2023-08-07T12:35:35;99277.03;;;19.62;51.40
78990;BME280;68390;52.130;21.218;2023-08-07T12:38:01;99288.03;;;19.52;52.79
78990;BME280;68390;52.130;21.218;2023-08-07T12:40:30;99289.03;;;19.46;52.32
78990;BME280;68390;52.130;21.218;2023-08-07T12:42:56;99277.66;;;19.31;53.42
78990;BME280;68390;52.130;21.218;2023-08-07T12:45:22;99283.13;;;19.26;52.86
78990;BME280;68390;52.130;21.218;2023-08-07T12:47:47;99281.88;;;19.17;52.56
78990;BME280;68390;52.130;21.218;2023-08-07T12:50:12;99297.81;;;19.21;53.05